createdAt,value
2022-10-06T00:00:00.867Z,101225.56
2022-10-06T00:03:02.693Z,101228.81
2022-10-06T00:06:05.315Z,101236.59
2022-10-06T00:09:06.737Z,101225.91
2022-10-06T00:12:09.280Z,101220.00
2022-10-06T00:15:13.275Z,101238.44
2022-10-06T00:18:14.706Z,101246.00
2022-10-06T00:21:16.626Z,101247.34
2022-10-06T00:24:18.531Z,101252.97
2022-10-06T00:27:20.219Z,101255.50
2022-10-06T00:30:24.500Z,101268.13
2022-10-06T00:33:25.888Z,101271.66
2022-10-06T00:36:28.281Z,101264.69
2022-10-06T00:39:29.715Z,101269.00
2022-10-06T00:42:32.893Z,101272.59
2022-10-06T00:45:48.602Z,101278.72
2022-10-06T00:48:55.598Z,101278.88
2022-10-06T00:52:06.538Z,101273.63
2022-10-06T00:55:11.228Z,101272.63
2022-10-06T00:58:13.698Z,101275.16
2022-10-06T01:01:15.153Z,101275.47
2022-10-06T01:04:18.110Z,101284.50
2022-10-06T01:07:21.226Z,101284.66
2022-10-06T01:10:22.770Z,101292.47
2022-10-06T01:13:26.274Z,101282.59
2022-10-06T01:16:27.694Z,101279.03
2022-10-06T01:19:50.807Z,101285.28
2022-10-06T01:23:10.055Z,101283.09
2022-10-06T01:26:14.406Z,101285.94
2022-10-06T01:29:16.220Z,101293.88
2022-10-06T01:32:17.825Z,101300.09
2022-10-06T01:35:19.410Z,101312.16
2022-10-06T01:38:21.901Z,101318.50
2022-10-06T01:41:27.696Z,101321.28
2022-10-06T01:44:29.642Z,101319.47
2022-10-06T01:47:31.218Z,101318.41
2022-10-06T01:50:33.795Z,101320.88
2022-10-06T01:53:35.249Z,101319.00
2022-10-06T01:56:36.657Z,101331.25
2022-10-06T01:59:38.222Z,101343.00
2022-10-06T02:02:40.678Z,101337.16
2022-10-06T02:05:42.250Z,101342.28
2022-10-06T02:08:43.798Z,101342.09
2022-10-06T02:11:45.281Z,101347.41
2022-10-06T02:14:46.763Z,101349.31
2022-10-06T02:17:48.602Z,101359.91
2022-10-06T02:20:50.392Z,101356.34
2022-10-06T02:23:51.940Z,101365.94
2022-10-06T02:26:54.064Z,101375.44
2022-10-06T02:29:55.829Z,101375.53
2022-10-06T02:32:57.354Z,101371.88
2022-10-06T02:35:59.401Z,101383.09
2022-10-06T02:39:03.193Z,101390.97
2022-10-06T02:42:05.386Z,101396.16
2022-10-06T02:45:07.305Z,101401.44
2022-10-06T02:48:11.494Z,101403.13
2022-10-06T02:51:19.016Z,101413.72
2022-10-06T02:54:21.683Z,101418.94
2022-10-06T02:57:23.149Z,101421.38
2022-10-06T03:00:24.723Z,101423.88
2022-10-06T03:03:26.136Z,101424.59
2022-10-06T03:06:30.297Z,101425.31
2022-10-06T03:09:41.690Z,101433.09
2022-10-06T03:12:43.461Z,101436.50
2022-10-06T03:15:44.941Z,101439.81
2022-10-06T03:18:49.296Z,101442.28
2022-10-06T03:21:50.766Z,101439.41
2022-10-06T03:24:52.177Z,101443.53
2022-10-06T03:27:54.022Z,101446.81
2022-10-06T03:31:01.489Z,101448.47
2022-10-06T03:34:03.542Z,101452.69
2022-10-06T03:37:05.178Z,101466.66
2022-10-06T03:40:07.040Z,101469.00
2022-10-06T03:43:09.493Z,101478.94
2022-10-06T03:46:14.109Z,101494.34
2022-10-06T03:49:15.618Z,101504.75
2022-10-06T03:52:18.570Z,101503.91
2022-10-06T03:55:21.970Z,101511.88
2022-10-06T03:58:23.485Z,101512.72
2022-10-06T04:01:42.781Z,101523.22
2022-10-06T04:04:46.438Z,101529.09
2022-10-06T04:07:47.919Z,101537.63
2022-10-06T04:10:49.578Z,101553.47
2022-10-06T04:13:56.600Z,101548.25
2022-10-06T04:16:59.266Z,101554.22
2022-10-06T04:20:10.272Z,101574.72
2022-10-06T04:23:12.326Z,101574.59
2022-10-06T04:26:17.025Z,101576.34
2022-10-06T04:29:22.045Z,101582.56
2022-10-06T04:32:29.504Z,101583.06
2022-10-06T04:35:30.883Z,101579.38
2022-10-06T04:38:34.061Z,101571.53
2022-10-06T04:41:36.850Z,101572.44
2022-10-06T04:44:38.782Z,101570.75
2022-10-06T04:47:41.201Z,101580.41
2022-10-06T04:50:43.518Z,101582.97
2022-10-06T04:53:48.466Z,101581.28
2022-10-06T04:56:51.000Z,101581.59
2022-10-06T05:00:15.188Z,101587.06
2022-10-06T05:03:19.571Z,101592.56
2022-10-06T05:06:24.097Z,101607.75
2022-10-06T05:09:26.391Z,101620.13
2022-10-06T05:12:31.008Z,101628.97
2022-10-06T05:15:32.768Z,101632.53
2022-10-06T05:18:35.464Z,101634.31
2022-10-06T05:21:37.567Z,101629.88
2022-10-06T05:24:40.520Z,101639.53
2022-10-06T05:27:41.896Z,101646.69
2022-10-06T05:30:43.300Z,101651.06
2022-10-06T05:33:44.950Z,101649.28
2022-10-06T05:36:46.967Z,101646.63
2022-10-06T05:39:48.620Z,101651.00
2022-10-06T05:42:50.901Z,101660.72
2022-10-06T05:45:54.110Z,101665.22
2022-10-06T05:48:58.405Z,101665.03
2022-10-06T05:52:02.471Z,101675.44
2022-10-06T05:55:07.216Z,101678.00
2022-10-06T05:58:08.807Z,101684.16
2022-10-06T06:01:12.860Z,101686.53
2022-10-06T06:04:14.724Z,101687.41
2022-10-06T06:07:21.374Z,101699.78
2022-10-06T06:10:23.226Z,101697.22
2022-10-06T06:13:24.953Z,101713.91
2022-10-06T06:16:36.974Z,101705.84
2022-10-06T06:19:38.493Z,101727.91
2022-10-06T06:22:41.195Z,101723.53
2022-10-06T06:25:44.176Z,101723.56
2022-10-06T06:28:47.493Z,101730.72
2022-10-06T06:31:51.239Z,101741.03
2022-10-06T06:34:52.749Z,101740.75
2022-10-06T06:37:54.398Z,101745.00
2022-10-06T06:40:56.312Z,101747.41
2022-10-06T06:44:00.025Z,101760.44
2022-10-06T06:47:10.068Z,101773.44
2022-10-06T06:50:15.053Z,101773.22
2022-10-06T06:53:16.894Z,101782.75
2022-10-06T06:56:21.795Z,101783.31
2022-10-06T06:59:23.330Z,101791.25
2022-10-06T07:02:29.734Z,101809.22
2022-10-06T07:05:32.220Z,101807.38
2022-10-06T07:08:33.621Z,101810.63
2022-10-06T07:11:39.737Z,101810.34
2022-10-06T07:15:07.368Z,101808.16
2022-10-06T07:18:32.937Z,101813.94
2022-10-06T07:21:53.134Z,101829.78
2022-10-06T07:25:06.982Z,101829.75
2022-10-06T07:28:12.173Z,101829.56
2022-10-06T07:31:17.593Z,101840.56
2022-10-06T07:34:19.136Z,101844.75
2022-10-06T07:37:20.800Z,101839.19
2022-10-06T07:40:22.717Z,101850.03
2022-10-06T07:43:25.294Z,101855.63
2022-10-06T07:46:27.516Z,101854.84
2022-10-06T07:49:34.731Z,101860.78
2022-10-06T07:52:39.065Z,101857.03
2022-10-06T07:55:44.447Z,101864.56
2022-10-06T07:58:58.340Z,101873.44
2022-10-06T08:01:59.826Z,101872.59
2022-10-06T08:05:01.329Z,101877.44
2022-10-06T08:08:02.758Z,101877.69
2022-10-06T08:11:06.460Z,101877.44
2022-10-06T08:14:07.852Z,101881.94
2022-10-06T08:17:09.298Z,101890.78
2022-10-06T08:20:12.253Z,101890.38
2022-10-06T08:23:14.213Z,101893.44
2022-10-06T08:26:17.944Z,101892.56
2022-10-06T08:29:19.332Z,101889.97
2022-10-06T08:32:21.588Z,101893.34
2022-10-06T08:35:23.064Z,101893.34
2022-10-06T08:38:24.564Z,101891.59
2022-10-06T08:41:31.949Z,101891.59
2022-10-06T08:44:44.434Z,101892.53
2022-10-06T08:47:55.056Z,101905.56
2022-10-06T08:51:21.637Z,101902.59
2022-10-06T08:54:50.173Z,101909.72
2022-10-06T08:58:18.047Z,101918.97
2022-10-06T09:01:25.859Z,101920.47
2022-10-06T09:04:32.081Z,101923.38
2022-10-06T09:07:42.129Z,101924.84
2022-10-06T09:11:02.075Z,101928.38
2022-10-06T09:14:10.485Z,101921.00
2022-10-06T09:17:18.791Z,101931.28
2022-10-06T09:20:32.613Z,101936.47
2022-10-06T09:23:48.094Z,101935.53
2022-10-06T09:26:51.049Z,101943.75
2022-10-06T09:29:53.199Z,101944.53
2022-10-06T09:33:00.091Z,101950.13
2022-10-06T09:36:09.744Z,101952.88
2022-10-06T09:39:24.644Z,101954.22
2022-10-06T09:42:29.618Z,101956.25
2022-10-06T09:45:31.403Z,101945.94
2022-10-06T09:48:32.899Z,101957.94
2022-10-06T09:51:36.391Z,101952.34
2022-10-06T09:54:41.654Z,101953.94
2022-10-06T09:57:51.400Z,101959.97
2022-10-06T10:01:02.925Z,101954.75
2022-10-06T10:04:21.371Z,101960.09
2022-10-06T10:07:29.272Z,101958.97
2022-10-06T10:10:30.779Z,101960.69
2022-10-06T10:13:43.217Z,101957.38
2022-10-06T10:16:48.631Z,101954.75
2022-10-06T10:19:55.363Z,101960.81
2022-10-06T10:23:09.169Z,101961.75
2022-10-06T10:26:35.763Z,101960.94
2022-10-06T10:29:53.115Z,101954.66
2022-10-06T10:33:11.864Z,101953.00
2022-10-06T10:36:16.383Z,101946.56
2022-10-06T10:39:29.708Z,101961.47
2022-10-06T10:42:39.633Z,101963.69
2022-10-06T10:45:49.113Z,101960.69
2022-10-06T10:49:08.984Z,101968.03
2022-10-06T10:52:22.972Z,101954.00
2022-10-06T10:55:29.813Z,101955.75
2022-10-06T10:58:36.580Z,101948.16
2022-10-06T11:01:49.742Z,101950.00
2022-10-06T11:04:57.725Z,101948.38
2022-10-06T11:08:02.356Z,101942.88
2022-10-06T11:11:12.262Z,101943.81
2022-10-06T11:14:33.953Z,101952.44
2022-10-06T11:17:43.994Z,101947.50
2022-10-06T11:20:55.864Z,101939.41
2022-10-06T11:24:03.251Z,101943.19
2022-10-06T11:27:30.800Z,101945.81
2022-10-06T11:30:37.958Z,101948.78
2022-10-06T11:33:49.024Z,101936.91
2022-10-06T11:36:50.341Z,101943.16
2022-10-06T11:40:13.994Z,101943.06
2022-10-06T11:43:52.972Z,101942.84
2022-10-06T11:47:02.886Z,101924.50
2022-10-06T11:50:42.590Z,101925.25
2022-10-06T11:53:44.996Z,101931.28
2022-10-06T11:56:46.547Z,101923.34
2022-10-06T11:59:55.857Z,101911.63
2022-10-06T12:03:29.462Z,101920.75
2022-10-06T12:06:45.830Z,101908.75
2022-10-06T12:09:52.471Z,101911.00
2022-10-06T12:17:12.805Z,101902.25
2022-10-06T12:20:38.866Z,101897.34
2022-10-06T12:24:19.554Z,101891.09
2022-10-06T12:27:30.426Z,101891.53
2022-10-06T12:30:50.560Z,101893.31
2022-10-06T12:33:52.472Z,101882.56
2022-10-06T12:37:20.492Z,101883.13
2022-10-06T12:40:48.940Z,101890.75
2022-10-06T12:43:55.202Z,101884.81
2022-10-06T12:47:03.866Z,101890.75
2022-10-06T12:50:16.914Z,101878.66
2022-10-06T12:53:27.682Z,101879.94
2022-10-06T12:56:35.006Z,101881.38
2022-10-06T12:59:38.403Z,101878.47
2022-10-06T13:02:43.880Z,101870.78
2022-10-06T13:05:55.946Z,101882.84
2022-10-06T13:09:13.872Z,101884.72
2022-10-06T13:12:23.410Z,101873.72
2022-10-06T13:15:36.488Z,101874.03
2022-10-06T13:18:37.907Z,101877.50
2022-10-06T13:21:39.387Z,101876.16
2022-10-06T13:24:40.943Z,101867.78
2022-10-06T13:27:50.359Z,101860.84
2022-10-06T13:34:15.040Z,101863.75
2022-10-06T13:37:16.708Z,101852.59
2022-10-06T13:40:45.895Z,101853.84
2022-10-06T13:43:52.449Z,101861.03
2022-10-06T13:46:59.285Z,101863.00
2022-10-06T13:50:05.862Z,101850.53
2022-10-06T13:53:23.451Z,101858.41
2022-10-06T13:56:32.394Z,101857.41
2022-10-06T13:59:36.939Z,101859.97
2022-10-06T14:02:38.762Z,101855.59
2022-10-06T14:05:42.219Z,101850.53
2022-10-06T14:08:52.388Z,101854.16
2022-10-06T14:12:02.805Z,101849.13
2022-10-06T14:15:05.474Z,101846.31
2022-10-06T14:18:07.068Z,101847.75
2022-10-06T14:21:27.241Z,101850.66
2022-10-06T14:24:28.924Z,101853.13
2022-10-06T14:27:30.314Z,101842.28
2022-10-06T14:30:31.696Z,101837.63
2022-10-06T14:33:33.973Z,101838.56
2022-10-06T14:36:39.509Z,101841.94
2022-10-06T14:39:42.493Z,101849.38
2022-10-06T14:42:43.973Z,101845.84
2022-10-06T14:45:45.536Z,101842.34
2022-10-06T14:48:47.002Z,101836.53
2022-10-06T14:51:48.442Z,101832.63
2022-10-06T14:54:50.704Z,101830.38
2022-10-06T14:57:52.073Z,101831.34
2022-10-06T15:00:53.478Z,101832.34
2022-10-06T15:03:57.835Z,101824.69
2022-10-06T15:07:17.810Z,101829.56
2022-10-06T15:10:19.231Z,101821.66
2022-10-06T15:13:20.702Z,101824.50
2022-10-06T15:16:23.222Z,101825.28
2022-10-06T15:19:24.908Z,101820.25
2022-10-06T15:22:26.350Z,101820.56
2022-10-06T15:25:46.077Z,101813.94
2022-10-06T15:29:03.058Z,101814.25
2022-10-06T15:32:06.016Z,101812.09
2022-10-06T15:35:08.086Z,101811.38
2022-10-06T15:38:09.529Z,101811.25
2022-10-06T15:41:11.575Z,101808.63
2022-10-06T15:44:14.016Z,101806.25
2022-10-06T15:47:15.635Z,101812.31
2022-10-06T15:50:18.938Z,101795.44
2022-10-06T15:53:22.431Z,101809.28
2022-10-06T15:56:28.949Z,101803.19
2022-10-06T15:59:31.583Z,101807.03
2022-10-06T16:02:35.679Z,101801.59
2022-10-06T16:05:51.695Z,101799.84
2022-10-06T16:08:54.735Z,101805.63
2022-10-06T16:11:57.947Z,101808.38
2022-10-06T16:14:59.388Z,101810.28
2022-10-06T16:18:00.868Z,101801.59
2022-10-06T16:21:02.324Z,101809.97
2022-10-06T16:24:03.963Z,101810.97
2022-10-06T16:27:05.494Z,101806.75
2022-10-06T16:30:07.831Z,101801.69
2022-10-06T16:33:09.258Z,101803.88
2022-10-06T16:36:11.634Z,101805.28
2022-10-06T16:39:15.681Z,101810.03
2022-10-06T16:42:17.917Z,101808.69
2022-10-06T16:45:19.344Z,101818.97
2022-10-06T16:48:20.809Z,101820.31
2022-10-06T16:51:25.229Z,101807.06
2022-10-06T16:54:26.950Z,101818.94
2022-10-06T16:57:28.774Z,101814.94
2022-10-06T17:00:30.172Z,101815.69
2022-10-06T17:03:31.636Z,101814.72
2022-10-06T17:06:57.070Z,101816.97
2022-10-06T17:10:18.868Z,101821.69
2022-10-06T17:13:19.905Z,101820.38
2022-10-06T17:16:27.437Z,101825.25
2022-10-06T17:19:30.349Z,101827.28
2022-10-06T17:22:31.749Z,101831.91
2022-10-06T17:25:33.783Z,101826.94
2022-10-06T17:28:36.204Z,101832.50
2022-10-06T17:31:39.967Z,101841.50
2022-10-06T17:34:41.400Z,101843.56
2022-10-06T17:37:42.852Z,101837.09
2022-10-06T17:40:44.772Z,101832.91
2022-10-06T17:43:48.806Z,101845.50
2022-10-06T17:46:52.784Z,101845.41
2022-10-06T17:49:56.600Z,101843.16
2022-10-06T17:52:59.264Z,101847.25
2022-10-06T17:56:11.425Z,101844.22
2022-10-06T17:59:16.273Z,101839.31
2022-10-06T18:02:17.721Z,101848.44
2022-10-06T18:05:19.350Z,101843.22
2022-10-06T18:08:23.362Z,101843.41
2022-10-06T18:11:35.970Z,101839.44
2022-10-06T18:14:37.382Z,101841.53
2022-10-06T18:17:38.790Z,101846.44
2022-10-06T18:20:41.488Z,101845.88
2022-10-06T18:23:43.373Z,101833.75
2022-10-06T18:26:48.014Z,101838.06
2022-10-06T18:29:49.588Z,101843.63
2022-10-06T18:36:14.939Z,101837.97
2022-10-06T18:39:16.754Z,101832.75
2022-10-06T18:42:19.283Z,101833.84
2022-10-06T18:45:39.729Z,101835.94
2022-10-06T18:48:58.198Z,101825.63
2022-10-06T18:52:01.595Z,101831.84
2022-10-06T18:55:03.035Z,101833.72
2022-10-06T18:58:05.154Z,101831.22
2022-10-06T19:01:07.050Z,101824.81
2022-10-06T19:04:10.050Z,101830.88
2022-10-06T19:07:11.604Z,101835.22
2022-10-06T19:10:13.030Z,101830.13
2022-10-06T19:13:14.405Z,101834.00
2022-10-06T19:16:17.310Z,101832.28
2022-10-06T19:19:19.816Z,101828.75
2022-10-06T19:22:24.602Z,101830.47
2022-10-06T19:25:26.789Z,101826.09
2022-10-06T19:28:33.203Z,101826.25
2022-10-06T19:31:39.684Z,101823.03
2022-10-06T19:34:43.719Z,101825.00
2022-10-06T19:37:45.672Z,101834.69
2022-10-06T19:40:47.883Z,101833.81
2022-10-06T19:43:50.622Z,101835.69
2022-10-06T19:46:52.992Z,101840.03
2022-10-06T19:49:58.272Z,101840.13
2022-10-06T19:53:01.692Z,101848.06
2022-10-06T19:56:04.158Z,101841.03
2022-10-06T19:59:06.206Z,101848.25
2022-10-06T20:02:08.542Z,101848.25
2022-10-06T20:05:14.810Z,101852.72
2022-10-06T20:08:16.205Z,101844.84
2022-10-06T20:11:21.696Z,101841.59
2022-10-06T20:14:23.829Z,101847.91
2022-10-06T20:17:25.218Z,101847.06
2022-10-06T20:20:26.681Z,101847.19
2022-10-06T20:23:28.058Z,101855.41
2022-10-06T20:26:32.957Z,101842.56
2022-10-06T20:29:34.771Z,101841.09
2022-10-06T20:32:36.211Z,101838.63
2022-10-06T20:35:37.620Z,101837.91
2022-10-06T20:38:58.797Z,101839.81
2022-10-06T20:42:00.210Z,101840.81
2022-10-06T20:45:01.621Z,101844.41
2022-10-06T20:48:03.089Z,101847.22
2022-10-06T20:51:12.636Z,101843.66
2022-10-06T20:54:14.232Z,101841.84
2022-10-06T20:57:15.687Z,101840.81
2022-10-06T21:00:17.745Z,101846.34
2022-10-06T21:03:19.326Z,101848.34
2022-10-06T21:06:23.647Z,101840.47
2022-10-06T21:09:28.277Z,101846.09
2022-10-06T21:12:29.887Z,101844.81
2022-10-06T21:15:31.596Z,101842.56
2022-10-06T21:18:34.211Z,101838.28
2022-10-06T21:21:37.345Z,101848.03
2022-10-06T21:24:38.920Z,101837.47
2022-10-06T21:27:40.565Z,101832.63
2022-10-06T21:30:44.294Z,101832.25
2022-10-06T21:33:46.989Z,101833.72
2022-10-06T21:36:48.691Z,101821.63
2022-10-06T21:39:50.319Z,101828.75
2022-10-06T21:42:51.883Z,101823.34
2022-10-06T21:46:10.730Z,101829.31
2022-10-06T21:49:25.446Z,101823.09
2022-10-06T21:52:27.044Z,101819.56
2022-10-06T21:55:28.636Z,101817.69
2022-10-06T21:58:30.197Z,101817.47
2022-10-06T22:01:34.801Z,101818.25
2022-10-06T22:04:37.648Z,101810.22
2022-10-06T22:07:39.232Z,101809.19
2022-10-06T22:10:40.801Z,101813.50
2022-10-06T22:13:45.368Z,101806.31
2022-10-06T22:16:47.161Z,101799.19
2022-10-06T22:19:48.730Z,101802.66
2022-10-06T22:22:51.391Z,101801.75
2022-10-06T22:25:57.653Z,101794.69
2022-10-06T22:28:59.974Z,101800.13
2022-10-06T22:32:01.560Z,101799.13
2022-10-06T22:35:03.474Z,101797.41
2022-10-06T22:38:05.051Z,101795.84
2022-10-06T22:41:09.072Z,101792.41
2022-10-06T22:44:10.707Z,101792.38
2022-10-06T22:47:12.540Z,101779.16
2022-10-06T22:50:14.118Z,101776.56
2022-10-06T22:53:20.965Z,101772.06
2022-10-06T22:56:22.918Z,101774.63
2022-10-06T22:59:24.537Z,101771.00
2022-10-06T23:02:26.114Z,101760.63
2022-10-06T23:05:28.147Z,101753.72
2022-10-06T23:08:34.855Z,101753.47
2022-10-06T23:11:36.946Z,101756.97
2022-10-06T23:14:38.519Z,101757.84
2022-10-06T23:17:41.801Z,101741.88
2022-10-06T23:20:43.729Z,101743.59
2022-10-06T23:23:46.497Z,101737.41
2022-10-06T23:26:48.071Z,101740.09
2022-10-06T23:29:49.872Z,101739.19
2022-10-06T23:32:51.510Z,101728.47
2022-10-06T23:36:00.743Z,101728.31
2022-10-06T23:39:02.327Z,101725.63
2022-10-06T23:42:04.108Z,101733.72
2022-10-06T23:45:07.736Z,101723.06
2022-10-06T23:48:09.367Z,101726.56
2022-10-06T23:51:13.528Z,101730.34
2022-10-06T23:54:15.097Z,101730.41
2022-10-06T23:57:16.725Z,101725.34
